createdAt,value
2019-02-07T00:00:17.213Z,93.70
2019-02-07T00:02:45.616Z,93.60
2019-02-07T00:05:14.016Z,93.70
2019-02-07T00:07:42.921Z,93.80
2019-02-07T00:10:19.548Z,93.70
2019-02-07T00:12:47.976Z,93.80
2019-02-07T00:15:16.681Z,93.60
2019-02-07T00:17:45.174Z,93.50
2019-02-07T00:20:18.696Z,93.50
2019-02-07T00:22:47.165Z,93.40
2019-02-07T00:25:15.573Z,93.20
2019-02-07T00:27:44.012Z,93.20
2019-02-07T00:30:21.264Z,93.20
2019-02-07T00:32:49.668Z,93.20
2019-02-07T00:35:18.069Z,93.20
2019-02-07T00:37:46.474Z,93.20
2019-02-07T00:40:20.254Z,93.10
2019-02-07T00:42:48.930Z,93.10
2019-02-07T00:45:20.373Z,93.10
2019-02-07T00:47:49.422Z,93.00
2019-02-07T00:50:18.563Z,93.00
2019-02-07T00:52:46.977Z,93.00
2019-02-07T00:55:17.576Z,93.00
2019-02-07T00:57:45.976Z,93.00
2019-02-07T01:00:22.836Z,93.10
2019-02-07T01:02:51.472Z,93.00
2019-02-07T01:05:21.353Z,93.00
2019-02-07T01:07:50.064Z,92.90
2019-02-07T01:10:26.475Z,92.90
2019-02-07T01:12:54.909Z,92.80
2019-02-07T01:15:23.455Z,92.80
2019-02-07T01:17:51.919Z,92.80
2019-02-07T01:20:20.352Z,92.70
2019-02-07T01:22:48.804Z,92.70
2019-02-07T01:25:21.737Z,92.60
2019-02-07T01:27:50.143Z,92.60
2019-02-07T01:30:25.895Z,92.70
2019-02-07T01:32:54.329Z,92.60
2019-02-07T01:35:22.739Z,92.60
2019-02-07T01:37:51.535Z,92.60
2019-02-07T01:40:20.801Z,92.60
2019-02-07T01:42:49.274Z,92.60
2019-02-07T01:45:21.012Z,92.90
2019-02-07T01:47:50.187Z,92.60
2019-02-07T01:50:20.701Z,92.60
2019-02-07T01:52:49.396Z,92.80
2019-02-07T01:55:17.838Z,92.60
2019-02-07T01:57:46.304Z,92.60
2019-02-07T02:00:17.276Z,92.60
2019-02-07T02:02:45.018Z,92.60
2019-02-07T02:05:15.519Z,92.60
2019-02-07T02:07:44.399Z,92.60
2019-02-07T02:10:18.121Z,92.30
2019-02-07T02:12:46.594Z,92.50
2019-02-07T02:15:23.957Z,92.50
2019-02-07T02:17:47.240Z,92.50
2019-02-07T02:20:18.239Z,92.50
2019-02-07T02:22:45.956Z,92.80
2019-02-07T02:25:14.357Z,92.50
2019-02-07T02:27:42.760Z,92.50
2019-02-07T02:30:14.561Z,92.50
2019-02-07T02:32:42.965Z,92.40
2019-02-07T02:35:11.363Z,92.40
2019-02-07T02:37:40.084Z,92.30
2019-02-07T02:40:10.782Z,92.30
2019-02-07T02:42:39.183Z,92.30
2019-02-07T02:45:10.850Z,92.20
2019-02-07T02:47:39.257Z,92.20
2019-02-07T02:50:11.175Z,92.20
2019-02-07T02:52:40.343Z,92.20
2019-02-07T02:55:10.532Z,92.20
2019-02-07T02:57:38.940Z,92.30
2019-02-07T03:00:19.449Z,92.30
2019-02-07T03:02:49.531Z,92.30
2019-02-07T03:05:19.568Z,92.30
2019-02-07T03:08:01.730Z,92.40
2019-02-07T03:10:31.854Z,92.40
2019-02-07T03:13:01.884Z,92.40
2019-02-07T03:15:32.233Z,92.40
2019-02-07T03:18:18.922Z,92.50
2019-02-07T03:21:04.272Z,92.40
2019-02-07T03:23:53.029Z,92.50
2019-02-07T03:26:34.781Z,92.50
2019-02-07T03:29:10.594Z,92.60
2019-02-07T03:31:52.945Z,92.70
2019-02-07T03:34:38.076Z,92.70
2019-02-07T03:37:13.633Z,92.70
2019-02-07T03:39:46.508Z,92.80
2019-02-07T03:42:16.544Z,92.70
2019-02-07T03:44:46.638Z,92.80
2019-02-07T03:47:19.558Z,92.80
2019-02-07T03:49:52.594Z,92.80
2019-02-07T03:52:25.556Z,92.90
2019-02-07T03:55:13.626Z,93.00
2019-02-07T03:57:49.512Z,93.00
2019-02-07T04:00:25.824Z,93.20
2019-02-07T04:02:55.872Z,93.20
2019-02-07T04:05:28.756Z,93.30
2019-02-07T04:07:58.809Z,93.30
2019-02-07T04:10:31.556Z,93.30
2019-02-07T04:13:01.616Z,93.50
2019-02-07T04:15:47.048Z,93.60
2019-02-07T04:18:33.159Z,93.60
2019-02-07T04:21:06.007Z,93.60
2019-02-07T04:23:48.165Z,93.60
2019-02-07T04:26:20.882Z,93.60
2019-02-07T04:28:50.952Z,93.60
2019-02-07T04:31:27.216Z,93.50
2019-02-07T04:34:13.809Z,93.40
2019-02-07T04:36:43.851Z,93.40
2019-02-07T04:39:13.923Z,93.40
2019-02-07T04:41:47.754Z,93.40
2019-02-07T04:44:23.584Z,93.40
2019-02-07T04:47:02.648Z,93.40
2019-02-07T04:49:35.155Z,93.30
2019-02-07T04:52:21.492Z,93.40
2019-02-07T04:55:09.607Z,93.50
2019-02-07T04:57:43.038Z,93.40
2019-02-07T05:00:18.960Z,93.60
2019-02-07T05:02:49.010Z,93.70
2019-02-07T05:05:35.443Z,93.80
2019-02-07T05:08:11.252Z,93.80
2019-02-07T05:10:47.129Z,93.90
2019-02-07T05:13:26.394Z,94.00
2019-02-07T05:16:08.677Z,94.10
2019-02-07T05:18:38.738Z,94.30
2019-02-07T05:21:11.779Z,94.30
2019-02-07T05:23:57.993Z,94.70
2019-02-07T05:26:28.182Z,94.50
2019-02-07T05:29:04.211Z,94.60
2019-02-07T05:31:36.741Z,94.60
2019-02-07T05:34:12.604Z,94.80
2019-02-07T05:36:51.873Z,94.90
2019-02-07T05:39:21.917Z,94.90
2019-02-07T05:41:51.961Z,95.20
2019-02-07T05:44:31.069Z,95.30
2019-02-07T05:47:06.935Z,95.40
2019-02-07T05:49:36.984Z,95.50
2019-02-07T05:52:07.101Z,95.40
2019-02-07T05:54:49.239Z,95.50
2019-02-07T05:57:37.608Z,95.50
2019-02-07T06:00:13.511Z,95.60
2019-02-07T06:02:55.650Z,95.60
2019-02-07T06:05:37.871Z,95.70
2019-02-07T06:08:07.919Z,95.90
2019-02-07T06:10:47.277Z,95.90
2019-02-07T06:13:32.688Z,95.90
2019-02-07T06:16:08.653Z,95.90
2019-02-07T06:18:41.689Z,96.00
2019-02-07T06:21:14.492Z,96.00
2019-02-07T06:23:47.273Z,96.10
2019-02-07T06:26:17.329Z,96.00
2019-02-07T06:28:50.333Z,96.00
2019-02-07T06:31:35.652Z,95.90
2019-02-07T06:34:07.561Z,95.70
2019-02-07T06:36:43.025Z,96.00
2019-02-07T06:39:15.827Z,96.10
2019-02-07T06:41:45.883Z,96.10
2019-02-07T06:44:18.816Z,96.10
2019-02-07T06:47:01.560Z,96.40
2019-02-07T06:49:34.211Z,96.20
2019-02-07T06:52:16.552Z,96.10
2019-02-07T06:55:02.865Z,96.10
2019-02-07T06:57:32.913Z,96.10
2019-02-07T07:00:15.264Z,96.20
2019-02-07T07:02:45.321Z,96.30
2019-02-07T07:05:31.904Z,96.30
2019-02-07T07:08:08.021Z,96.40
2019-02-07T07:10:46.950Z,96.30
2019-02-07T07:13:26.205Z,96.30
2019-02-07T07:16:05.276Z,96.30
2019-02-07T07:18:51.844Z,96.30
2019-02-07T07:21:36.954Z,96.10
2019-02-07T07:24:23.999Z,96.10
2019-02-07T07:26:56.821Z,96.10
2019-02-07T07:29:32.740Z,96.10
2019-02-07T07:32:08.766Z,95.90
2019-02-07T07:34:54.132Z,95.80
2019-02-07T07:37:36.191Z,96.10
2019-02-07T07:40:08.772Z,95.80
2019-02-07T07:42:54.122Z,95.80
2019-02-07T07:45:25.111Z,95.70
2019-02-07T07:48:11.492Z,95.60
2019-02-07T07:50:50.488Z,95.50
2019-02-07T07:53:26.324Z,95.70
2019-02-07T07:56:05.765Z,95.30
2019-02-07T07:58:54.304Z,95.20
2019-02-07T08:01:26.957Z,95.10
2019-02-07T08:04:02.654Z,95.10
2019-02-07T08:06:40.401Z,95.00
2019-02-07T08:09:18.508Z,94.90
2019-02-07T08:11:49.551Z,94.80
2019-02-07T08:14:18.892Z,94.90
2019-02-07T08:17:01.823Z,94.80
2019-02-07T08:19:43.736Z,94.80
2019-02-07T08:22:19.536Z,94.70
2019-02-07T08:24:56.114Z,94.70
2019-02-07T08:27:42.448Z,94.60
2019-02-07T08:30:13.545Z,94.60
2019-02-07T08:32:45.926Z,94.70
2019-02-07T08:35:16.103Z,94.40
2019-02-07T08:37:58.733Z,94.30
2019-02-07T08:40:31.764Z,94.30
2019-02-07T08:43:07.350Z,94.10
2019-02-07T08:45:53.992Z,94.10
2019-02-07T08:48:24.682Z,94.20
2019-02-07T08:51:00.623Z,94.10
2019-02-07T08:53:36.696Z,93.90
2019-02-07T08:56:06.742Z,93.80
2019-02-07T08:58:44.506Z,93.80
2019-02-07T09:01:20.800Z,93.90
2019-02-07T09:03:54.869Z,94.00
2019-02-07T09:06:41.756Z,93.80
2019-02-07T09:09:29.671Z,93.80
2019-02-07T09:12:16.304Z,93.80
2019-02-07T09:14:49.846Z,93.80
2019-02-07T09:17:20.911Z,93.70
2019-02-07T09:19:59.808Z,93.70
2019-02-07T09:22:45.273Z,93.60
2019-02-07T09:25:34.303Z,93.80
2019-02-07T09:28:11.343Z,93.70
2019-02-07T09:30:57.605Z,93.70
2019-02-07T09:33:30.537Z,93.80
2019-02-07T09:36:05.260Z,93.80
2019-02-07T09:38:38.078Z,93.80
2019-02-07T09:41:09.342Z,93.90
2019-02-07T09:43:40.457Z,93.90
2019-02-07T09:46:26.013Z,93.80
2019-02-07T09:48:59.391Z,94.00
2019-02-07T09:51:32.909Z,94.00
2019-02-07T09:54:02.955Z,93.90
2019-02-07T09:56:32.993Z,93.80
2019-02-07T09:59:06.162Z,93.80
2019-02-07T10:01:51.585Z,93.80
2019-02-07T10:04:27.970Z,93.80
2019-02-07T10:07:04.481Z,93.70
2019-02-07T10:09:40.604Z,93.60
2019-02-07T10:12:26.048Z,93.60
2019-02-07T10:14:59.293Z,93.60
2019-02-07T10:17:32.708Z,93.50
2019-02-07T10:20:14.782Z,93.50
2019-02-07T10:22:45.167Z,93.40
2019-02-07T10:25:17.977Z,93.50
2019-02-07T10:27:50.700Z,93.40
2019-02-07T10:30:36.137Z,93.40
2019-02-07T10:33:18.203Z,93.40
2019-02-07T10:35:48.245Z,93.30
2019-02-07T10:38:18.625Z,93.30
2019-02-07T10:40:50.053Z,93.30
2019-02-07T10:43:36.852Z,93.30
2019-02-07T10:46:06.969Z,93.60
2019-02-07T10:48:46.765Z,93.20
2019-02-07T10:51:19.678Z,93.20
2019-02-07T10:53:49.823Z,93.10
2019-02-07T10:56:35.436Z,93.10
2019-02-07T10:59:05.765Z,93.10
2019-02-07T11:01:36.201Z,93.10
2019-02-07T11:04:12.790Z,93.00
2019-02-07T11:06:59.424Z,93.20
2019-02-07T11:09:32.833Z,93.10
2019-02-07T11:12:10.037Z,93.00
2019-02-07T11:14:41.030Z,93.00
2019-02-07T11:17:27.985Z,93.00
2019-02-07T11:20:11.288Z,92.90
2019-02-07T11:22:56.251Z,93.00
2019-02-07T11:25:35.290Z,93.00
2019-02-07T11:28:10.715Z,93.00
2019-02-07T11:30:43.086Z,92.90
2019-02-07T11:33:29.464Z,93.00
2019-02-07T11:35:59.778Z,92.90
2019-02-07T11:38:32.755Z,92.80
2019-02-07T11:41:22.283Z,92.70
2019-02-07T11:44:07.909Z,92.70
2019-02-07T11:46:39.640Z,92.60
2019-02-07T11:49:25.158Z,92.50
2019-02-07T11:51:58.664Z,92.50
2019-02-07T11:54:38.212Z,92.70
2019-02-07T11:57:10.888Z,92.70
2019-02-07T11:59:43.901Z,92.70
2019-02-07T12:02:17.644Z,92.70
2019-02-07T12:05:06.497Z,92.80
2019-02-07T12:07:39.263Z,92.80
2019-02-07T12:10:12.612Z,92.80
2019-02-07T12:12:45.920Z,92.90
2019-02-07T12:15:15.970Z,92.90
2019-02-07T12:17:55.120Z,92.90
2019-02-07T12:20:25.437Z,92.90
2019-02-07T12:23:12.017Z,92.90
2019-02-07T12:25:51.780Z,93.00
2019-02-07T12:28:22.177Z,93.10
2019-02-07T12:31:09.068Z,93.00
2019-02-07T12:33:56.327Z,93.10
2019-02-07T12:36:26.534Z,93.00
2019-02-07T12:38:59.713Z,93.10
2019-02-07T12:41:46.381Z,93.10
2019-02-07T12:44:28.143Z,93.10
2019-02-07T12:47:01.732Z,93.10
2019-02-07T12:49:37.997Z,93.20
2019-02-07T12:52:08.136Z,93.20
2019-02-07T12:54:40.901Z,93.10
2019-02-07T12:57:14.446Z,93.10
2019-02-07T12:59:50.817Z,93.30
2019-02-07T13:02:20.908Z,93.10
2019-02-07T13:04:56.967Z,93.20
2019-02-07T13:07:27.425Z,93.10
2019-02-07T13:10:03.591Z,93.10
2019-02-07T13:12:39.260Z,93.10
2019-02-07T13:15:14.392Z,93.00
2019-02-07T13:17:53.332Z,92.90
2019-02-07T13:20:29.799Z,92.90
2019-02-07T13:23:08.903Z,92.90
2019-02-07T13:25:38.935Z,92.80
2019-02-07T13:28:11.976Z,92.90
2019-02-07T13:30:48.579Z,92.70
2019-02-07T13:33:21.897Z,92.70
2019-02-07T13:35:54.682Z,92.80
2019-02-07T13:38:30.315Z,92.60
2019-02-07T13:41:09.799Z,92.50
2019-02-07T13:43:39.975Z,92.60
2019-02-07T13:46:10.019Z,92.60
2019-02-07T13:48:43.139Z,92.40
2019-02-07T13:51:22.146Z,92.50
2019-02-07T13:53:53.103Z,92.40
2019-02-07T13:56:23.513Z,92.50
2019-02-07T13:59:10.025Z,92.50
2019-02-07T14:01:52.464Z,92.60
2019-02-07T14:04:22.508Z,92.50
2019-02-07T14:06:52.606Z,92.50
2019-02-07T14:09:26.388Z,92.60
2019-02-07T14:11:59.360Z,92.50
2019-02-07T14:14:29.528Z,92.80
2019-02-07T14:17:05.579Z,92.50
2019-02-07T14:19:41.974Z,92.60
2019-02-07T14:22:15.325Z,92.60
2019-02-07T14:24:51.285Z,92.60
2019-02-07T14:27:30.336Z,92.60
2019-02-07T14:30:15.200Z,92.70
2019-02-07T14:32:45.286Z,92.60
2019-02-07T14:35:31.557Z,92.80
2019-02-07T14:38:01.780Z,92.80
2019-02-07T14:40:38.533Z,93.00
2019-02-07T14:43:23.576Z,93.00
2019-02-07T14:45:56.733Z,92.80
2019-02-07T14:48:26.001Z,93.20
2019-02-07T14:50:54.897Z,93.30
2019-02-07T14:53:23.969Z,93.30
2019-02-07T14:55:52.825Z,93.40
2019-02-07T14:58:22.243Z,93.60
2019-02-07T15:00:50.828Z,93.60
2019-02-07T15:03:19.216Z,93.70
2019-02-07T15:05:48.589Z,93.90
2019-02-07T15:08:17.037Z,94.10
2019-02-07T15:10:45.440Z,94.20
2019-02-07T15:13:14.505Z,94.40
2019-02-07T15:15:42.913Z,94.60
2019-02-07T15:18:11.981Z,94.70
2019-02-07T15:20:41.083Z,94.80
2019-02-07T15:23:10.040Z,94.80
2019-02-07T15:25:38.446Z,94.90
2019-02-07T15:28:07.164Z,95.00
2019-02-07T15:30:35.561Z,95.10
2019-02-07T15:33:04.128Z,95.00
2019-02-07T15:35:37.120Z,95.20
2019-02-07T15:38:05.522Z,95.40
2019-02-07T15:40:34.536Z,95.50
2019-02-07T15:43:03.008Z,95.70
2019-02-07T15:45:32.012Z,95.50
2019-02-07T15:48:00.422Z,95.60
2019-02-07T15:50:37.690Z,95.60
2019-02-07T15:53:00.848Z,95.50
2019-02-07T15:55:29.312Z,95.50
2019-02-07T15:57:59.620Z,95.60
2019-02-07T16:00:45.583Z,95.60
2019-02-07T16:03:28.612Z,95.60
2019-02-07T16:05:57.150Z,95.70
2019-02-07T16:08:27.020Z,95.60
2019-02-07T16:10:55.567Z,95.70
2019-02-07T16:13:24.245Z,95.80
2019-02-07T16:15:53.180Z,95.70
2019-02-07T16:18:21.950Z,95.80
2019-02-07T16:20:50.488Z,95.70
2019-02-07T16:23:19.742Z,95.80
2019-02-07T16:25:48.477Z,95.70
2019-02-07T16:28:16.940Z,95.60
2019-02-07T16:30:46.290Z,95.60
2019-02-07T16:33:14.833Z,95.60
2019-02-07T16:35:43.341Z,95.60
2019-02-07T16:38:12.199Z,95.70
2019-02-07T16:40:41.365Z,95.80
2019-02-07T16:43:09.810Z,95.80
2019-02-07T16:45:38.348Z,95.90
2019-02-07T16:48:06.894Z,95.90
2019-02-07T16:50:36.907Z,96.00
2019-02-07T16:53:06.217Z,96.20
2019-02-07T16:55:34.623Z,96.10
2019-02-07T16:58:03.060Z,96.20
2019-02-07T17:00:33.932Z,96.00
2019-02-07T17:03:02.334Z,95.90
2019-02-07T17:05:31.701Z,95.90
2019-02-07T17:08:00.285Z,95.90
2019-02-07T17:10:36.031Z,95.90
2019-02-07T17:13:07.848Z,95.90
2019-02-07T17:15:36.712Z,96.20
2019-02-07T17:18:05.900Z,95.90
2019-02-07T17:20:34.300Z,95.90
2019-02-07T17:23:03.399Z,95.70
2019-02-07T17:25:32.369Z,95.90
2019-02-07T17:28:01.016Z,95.90
2019-02-07T17:30:30.683Z,95.90
2019-02-07T17:32:59.084Z,95.80
2019-02-07T17:35:27.926Z,95.50
2019-02-07T17:37:56.324Z,95.60
2019-02-07T17:40:26.268Z,95.60
2019-02-07T17:42:54.694Z,95.50
2019-02-07T17:45:28.520Z,95.40
2019-02-07T17:47:57.275Z,95.40
2019-02-07T17:50:34.744Z,95.40
2019-02-07T17:53:05.971Z,95.40
2019-02-07T17:55:34.373Z,95.20
2019-02-07T17:58:02.848Z,95.30
2019-02-07T18:01:01.388Z,95.30
2019-02-07T18:03:29.781Z,95.30
2019-02-07T18:05:58.178Z,95.30
2019-02-07T18:08:26.607Z,95.40
2019-02-07T18:10:55.746Z,95.60
2019-02-07T18:13:25.301Z,95.30
2019-02-07T18:15:57.444Z,95.20
2019-02-07T18:18:24.233Z,95.10
2019-02-07T18:20:52.629Z,95.30
2019-02-07T18:23:21.484Z,95.00
2019-02-07T18:25:50.105Z,95.20
2019-02-07T18:28:18.505Z,94.90
2019-02-07T18:30:47.122Z,94.80
2019-02-07T18:33:15.888Z,94.80
2019-02-07T18:35:45.281Z,94.90
2019-02-07T18:38:13.780Z,95.30
2019-02-07T18:40:42.586Z,95.50
2019-02-07T18:43:11.059Z,94.70
2019-02-07T18:45:40.389Z,94.10
2019-02-07T18:48:09.811Z,94.10
2019-02-07T18:50:39.205Z,94.10
2019-02-07T18:53:09.295Z,94.10
2019-02-07T18:55:37.714Z,94.00
2019-02-07T18:58:06.146Z,94.00
2019-02-07T19:00:36.737Z,94.10
2019-02-07T19:03:09.028Z,94.10
2019-02-07T19:05:38.405Z,94.00
2019-02-07T19:08:07.184Z,93.90
2019-02-07T19:10:35.941Z,93.80
2019-02-07T19:13:04.802Z,93.70
2019-02-07T19:15:36.396Z,93.60
2019-02-07T19:18:05.916Z,93.50
2019-02-07T19:20:34.684Z,93.60
2019-02-07T19:23:03.452Z,93.50
2019-02-07T19:25:33.460Z,93.30
2019-02-07T19:28:01.935Z,93.30
2019-02-07T19:30:34.577Z,93.30
2019-02-07T19:33:03.280Z,93.20
2019-02-07T19:35:31.684Z,93.20
2019-02-07T19:38:00.755Z,93.20
2019-02-07T19:40:29.764Z,93.20
2019-02-07T19:42:59.418Z,93.00
2019-02-07T19:45:29.037Z,93.10
2019-02-07T19:47:57.752Z,93.10
2019-02-07T19:50:29.457Z,93.10
2019-02-07T19:52:58.872Z,93.30
2019-02-07T19:55:34.499Z,93.00
2019-02-07T19:58:02.964Z,92.90
2019-02-07T20:00:35.292Z,93.00
2019-02-07T20:03:04.055Z,92.80
2019-02-07T20:05:32.533Z,92.60
2019-02-07T20:08:02.748Z,92.50
2019-02-07T20:10:31.569Z,92.40
2019-02-07T20:13:00.953Z,92.40
2019-02-07T20:15:36.885Z,92.40
2019-02-07T20:18:08.048Z,92.30
2019-02-07T20:20:36.785Z,92.30
2019-02-07T20:23:05.264Z,92.20
2019-02-07T20:25:33.654Z,92.10
2019-02-07T20:28:02.355Z,92.10
2019-02-07T20:30:40.261Z,92.10
2019-02-07T20:33:08.900Z,92.20
2019-02-07T20:35:37.370Z,91.80
2019-02-07T20:38:07.361Z,91.70
2019-02-07T20:40:36.036Z,92.10
2019-02-07T20:43:05.504Z,91.70
2019-02-07T20:45:34.819Z,91.70
2019-02-07T20:48:04.155Z,91.60
2019-02-07T20:50:32.544Z,91.50
2019-02-07T20:53:01.987Z,91.40
2019-02-07T20:55:30.413Z,91.40
2019-02-07T20:57:59.085Z,91.20
2019-02-07T21:00:38.892Z,91.10
2019-02-07T21:03:07.404Z,91.10
2019-02-07T21:05:37.258Z,91.10
2019-02-07T21:08:07.091Z,91.20
2019-02-07T21:10:37.633Z,91.00
2019-02-07T21:13:06.775Z,91.20
2019-02-07T21:15:35.180Z,91.10
2019-02-07T21:18:03.572Z,91.00
2019-02-07T21:20:32.256Z,90.80
2019-02-07T21:23:01.585Z,90.80
2019-02-07T21:25:37.136Z,90.70
2019-02-07T21:28:06.684Z,90.70
2019-02-07T21:30:35.748Z,90.70
2019-02-07T21:33:04.485Z,90.70
2019-02-07T21:35:33.770Z,90.60
2019-02-07T21:38:02.505Z,90.50
2019-02-07T21:40:31.721Z,90.50
2019-02-07T21:43:00.618Z,90.50
2019-02-07T21:45:30.528Z,90.30
2019-02-07T21:48:02.815Z,90.20
2019-02-07T21:50:32.102Z,90.10
2019-02-07T21:53:00.549Z,90.20
2019-02-07T21:55:37.445Z,90.20
2019-02-07T21:58:07.816Z,90.10
2019-02-07T22:00:41.220Z,90.00
2019-02-07T22:03:11.359Z,90.00
2019-02-07T22:05:40.720Z,89.80
2019-02-07T22:08:09.663Z,89.60
2019-02-07T22:10:38.132Z,89.00
2019-02-07T22:13:06.876Z,89.10
2019-02-07T22:15:35.566Z,89.30
2019-02-07T22:18:04.581Z,89.00
2019-02-07T22:20:32.976Z,88.90
2019-02-07T22:23:01.374Z,88.90
2019-02-07T22:25:30.754Z,88.30
2019-02-07T22:27:59.161Z,88.20
2019-02-07T22:30:30.100Z,87.90
2019-02-07T22:32:58.577Z,87.90
2019-02-07T22:35:27.916Z,87.90
2019-02-07T22:37:57.169Z,87.80
2019-02-07T22:40:26.078Z,87.40
2019-02-07T22:42:54.984Z,87.20
2019-02-07T22:45:26.288Z,87.10
2019-02-07T22:47:55.048Z,87.20
2019-02-07T22:50:25.081Z,86.90
2019-02-07T22:52:56.962Z,86.60
2019-02-07T22:55:24.341Z,86.50
2019-02-07T22:57:52.759Z,86.50
2019-02-07T23:00:30.456Z,86.30
2019-02-07T23:02:58.852Z,86.40
2019-02-07T23:05:28.220Z,86.00
2019-02-07T23:07:57.508Z,86.10
2019-02-07T23:10:26.407Z,85.90
2019-02-07T23:12:54.834Z,85.80
2019-02-07T23:15:23.235Z,85.80
2019-02-07T23:17:52.552Z,85.90
2019-02-07T23:20:22.400Z,85.90
2019-02-07T23:22:50.799Z,85.50
2019-02-07T23:25:19.618Z,85.30
2019-02-07T23:27:48.020Z,85.50
2019-02-07T23:30:18.497Z,85.20
2019-02-07T23:32:46.912Z,85.20
2019-02-07T23:35:16.852Z,85.30
2019-02-07T23:37:45.780Z,85.10
2019-02-07T23:40:23.504Z,84.90
2019-02-07T23:42:51.980Z,85.20
2019-02-07T23:45:21.821Z,85.20
2019-02-07T23:47:50.484Z,85.10
2019-02-07T23:50:18.914Z,85.10
2019-02-07T23:52:47.309Z,85.00
2019-02-07T23:55:16.280Z,84.70
2019-02-07T23:57:44.712Z,85.00
